createdAt,value
2023-12-15T00:00:47.162Z,5.7
2023-12-15T00:01:47.365Z,6.2
2023-12-15T00:02:47.224Z,5.6
2023-12-15T00:03:47.928Z,6.2
2023-12-15T00:04:47.668Z,7.0
2023-12-15T00:05:47.512Z,6.3
2023-12-15T00:06:47.267Z,5.9
2023-12-15T00:07:47.123Z,6.4
2023-12-15T00:08:47.860Z,5.7
2023-12-15T00:09:47.615Z,5.1
2023-12-15T00:10:47.432Z,5.7
2023-12-15T00:11:47.321Z,5.5
2023-12-15T00:12:47.066Z,6.2
2023-12-15T00:13:47.277Z,6.1
2023-12-15T00:14:47.116Z,6.8
2023-12-15T00:15:47.788Z,5.8
2023-12-15T00:16:47.604Z,5.6
2023-12-15T00:17:47.584Z,5.8
2023-12-15T00:18:47.319Z,5.7
2023-12-15T00:19:47.480Z,6.0
2023-12-15T00:20:47.338Z,6.2
2023-12-15T00:21:47.080Z,5.7
2023-12-15T00:22:47.882Z,5.8
2023-12-15T00:23:47.616Z,6.2
2023-12-15T00:24:47.424Z,6.2
2023-12-15T00:25:47.294Z,6.6
2023-12-15T00:26:47.075Z,6.6
2023-12-15T00:27:47.769Z,6.5
2023-12-15T00:28:47.575Z,6.3
2023-12-15T00:29:47.348Z,6.0
2023-12-15T00:30:47.228Z,5.4
2023-12-15T00:31:47.881Z,5.7
2023-12-15T00:32:47.792Z,6.2
2023-12-15T00:33:47.610Z,5.1
2023-12-15T00:34:47.347Z,5.4
2023-12-15T00:35:47.165Z,5.7
2023-12-15T00:36:47.839Z,4.9
2023-12-15T00:37:47.266Z,5.9
2023-12-15T00:38:47.108Z,5.7
2023-12-15T00:39:48.261Z,5.5
2023-12-15T00:40:47.563Z,5.6
2023-12-15T00:41:47.371Z,5.1
2023-12-15T00:42:47.152Z,5.5
2023-12-15T00:43:47.963Z,5.6
2023-12-15T00:44:47.204Z,6.2
2023-12-15T00:45:47.405Z,6.4
2023-12-15T00:46:47.355Z,6.2
2023-12-15T00:47:47.144Z,5.8
2023-12-15T00:48:47.897Z,6.0
2023-12-15T00:49:47.181Z,6.3
2023-12-15T00:50:47.899Z,5.8
2023-12-15T00:51:47.770Z,6.1
2023-12-15T00:52:47.636Z,5.5
2023-12-15T00:53:47.411Z,5.5
2023-12-15T00:54:47.109Z,5.4
2023-12-15T00:55:47.824Z,5.5
2023-12-15T00:56:47.682Z,5.3
2023-12-15T00:57:47.405Z,6.2
2023-12-15T00:58:47.241Z,5.6
2023-12-15T00:59:47.167Z,5.5
2023-12-15T01:00:47.823Z,6.2
2023-12-15T01:01:47.629Z,6.2
2023-12-15T01:02:47.391Z,5.1
2023-12-15T01:03:47.226Z,6.3
2023-12-15T01:04:47.007Z,5.0
2023-12-15T01:05:47.773Z,5.1
2023-12-15T01:06:47.576Z,6.6
2023-12-15T01:07:49.469Z,5.5
2023-12-15T01:08:47.144Z,6.0
2023-12-15T01:09:47.945Z,5.3
2023-12-15T01:10:47.756Z,5.5
2023-12-15T01:11:48.046Z,6.6
2023-12-15T01:12:47.368Z,5.9
2023-12-15T01:13:47.203Z,5.1
2023-12-15T01:14:47.788Z,4.6
2023-12-15T01:15:47.577Z,5.4
2023-12-15T01:16:48.268Z,5.6
2023-12-15T01:17:47.432Z,5.7
2023-12-15T01:18:47.062Z,4.9
2023-12-15T01:19:47.763Z,6.1
2023-12-15T01:20:47.576Z,4.2
2023-12-15T01:21:47.404Z,4.7
2023-12-15T01:22:47.282Z,5.3
2023-12-15T01:23:47.014Z,6.2
2023-12-15T01:24:47.670Z,4.6
2023-12-15T01:25:47.073Z,5.3
2023-12-15T01:26:47.736Z,4.8
2023-12-15T01:27:47.591Z,5.2
2023-12-15T01:28:47.367Z,4.7
2023-12-15T01:29:47.221Z,6.3
2023-12-15T01:30:47.937Z,5.5
2023-12-15T01:31:47.725Z,5.0
2023-12-15T01:32:47.686Z,5.8
2023-12-15T01:33:47.397Z,5.9
2023-12-15T01:34:47.152Z,6.0
2023-12-15T01:35:48.061Z,5.3
2023-12-15T01:36:47.741Z,4.2
2023-12-15T01:37:47.546Z,5.1
2023-12-15T01:38:47.241Z,5.6
2023-12-15T01:39:47.087Z,5.8
2023-12-15T01:40:47.956Z,5.2
2023-12-15T01:41:48.458Z,6.0
2023-12-15T01:42:47.528Z,5.2
2023-12-15T01:43:47.352Z,5.2
2023-12-15T01:44:47.088Z,6.3
2023-12-15T01:45:49.466Z,5.8
2023-12-15T01:46:47.637Z,5.9
2023-12-15T01:47:47.582Z,5.7
2023-12-15T01:48:47.321Z,6.0
2023-12-15T01:49:47.305Z,5.3
2023-12-15T01:50:47.707Z,5.5
2023-12-15T01:51:47.563Z,5.1
2023-12-15T01:52:47.452Z,5.1
2023-12-15T01:53:47.165Z,5.7
2023-12-15T01:54:47.010Z,6.6
2023-12-15T01:55:47.990Z,6.1
2023-12-15T01:56:47.581Z,5.9
2023-12-15T01:57:47.744Z,5.6
2023-12-15T01:58:47.791Z,5.3
2023-12-15T01:59:47.910Z,4.5
2023-12-15T02:00:47.706Z,5.0
2023-12-15T02:01:47.897Z,5.0
2023-12-15T02:02:47.850Z,4.8
2023-12-15T02:03:48.073Z,5.0
2023-12-15T02:04:47.417Z,5.2
2023-12-15T02:05:48.447Z,6.2
2023-12-15T02:06:47.803Z,5.8
2023-12-15T02:07:47.601Z,5.6
2023-12-15T02:08:47.640Z,5.8
2023-12-15T02:09:47.277Z,5.7
2023-12-15T02:10:47.150Z,5.4
2023-12-15T02:11:47.776Z,5.6
2023-12-15T02:12:47.635Z,4.8
2023-12-15T02:13:47.507Z,4.8
2023-12-15T02:14:47.291Z,5.4
2023-12-15T02:15:47.077Z,3.9
2023-12-15T02:16:47.680Z,5.2
2023-12-15T02:17:47.679Z,4.6
2023-12-15T02:18:47.467Z,4.7
2023-12-15T02:19:47.272Z,5.3
2023-12-15T02:20:47.892Z,6.1
2023-12-15T02:21:47.700Z,4.7
2023-12-15T02:22:47.596Z,4.8
2023-12-15T02:23:47.448Z,6.5
2023-12-15T02:24:47.120Z,4.8
2023-12-15T02:25:47.811Z,4.3
2023-12-15T02:26:47.899Z,4.5
2023-12-15T02:27:47.495Z,4.3
2023-12-15T02:28:47.274Z,5.2
2023-12-15T02:29:47.044Z,5.0
2023-12-15T02:30:47.985Z,4.7
2023-12-15T02:31:47.593Z,5.9
2023-12-15T02:32:47.713Z,4.5
2023-12-15T02:33:47.549Z,5.0
2023-12-15T02:34:47.066Z,6.1
2023-12-15T02:35:47.686Z,5.8
2023-12-15T02:36:47.584Z,4.7
2023-12-15T02:37:47.352Z,4.9
2023-12-15T02:38:47.291Z,5.2
2023-12-15T02:39:47.840Z,5.1
2023-12-15T02:40:47.682Z,5.2
2023-12-15T02:41:47.635Z,5.3
2023-12-15T02:42:47.361Z,5.3
2023-12-15T02:43:47.178Z,4.2
2023-12-15T02:44:47.325Z,5.0
2023-12-15T02:45:47.134Z,5.0
2023-12-15T02:46:47.843Z,4.9
2023-12-15T02:47:47.321Z,4.5
2023-12-15T02:48:47.521Z,5.1
2023-12-15T02:49:47.214Z,5.4
2023-12-15T02:50:47.147Z,5.5
2023-12-15T02:51:47.766Z,4.9
2023-12-15T02:52:47.528Z,6.1
2023-12-15T02:53:47.317Z,4.8
2023-12-15T02:54:47.402Z,5.0
2023-12-15T02:55:48.013Z,4.1
2023-12-15T02:56:47.811Z,6.1
2023-12-15T02:57:47.467Z,5.4
2023-12-15T02:58:47.310Z,5.3
2023-12-15T02:59:47.091Z,4.6
2023-12-15T03:00:47.839Z,4.8
2023-12-15T03:01:47.784Z,5.2
2023-12-15T03:02:47.480Z,4.9
2023-12-15T03:03:47.374Z,4.9
2023-12-15T03:04:47.089Z,5.6
2023-12-15T03:05:47.850Z,5.1
2023-12-15T03:06:47.094Z,5.4
2023-12-15T03:07:47.772Z,4.3
2023-12-15T03:08:47.185Z,6.2
2023-12-15T03:09:47.844Z,5.4
2023-12-15T03:10:47.671Z,5.8
2023-12-15T03:11:47.571Z,5.0
2023-12-15T03:12:47.489Z,5.6
2023-12-15T03:13:47.066Z,5.3
2023-12-15T03:14:48.241Z,4.8
2023-12-15T03:15:47.558Z,4.0
2023-12-15T03:16:47.430Z,5.3
2023-12-15T03:17:47.360Z,4.9
2023-12-15T03:18:47.892Z,4.9
2023-12-15T03:19:47.687Z,4.7
2023-12-15T03:20:47.642Z,5.9
2023-12-15T03:21:47.327Z,4.9
2023-12-15T03:22:47.132Z,4.9
2023-12-15T03:23:47.747Z,5.5
2023-12-15T03:24:47.590Z,5.0
2023-12-15T03:25:47.469Z,4.4
2023-12-15T03:26:47.198Z,5.5
2023-12-15T03:27:47.864Z,4.6
2023-12-15T03:28:47.744Z,5.4
2023-12-15T03:29:47.549Z,5.3
2023-12-15T03:30:47.452Z,5.6
2023-12-15T03:31:47.559Z,5.7
2023-12-15T03:32:47.483Z,5.7
2023-12-15T03:33:47.222Z,4.1
2023-12-15T03:34:47.867Z,5.4
2023-12-15T03:35:47.302Z,5.9
2023-12-15T03:36:47.042Z,4.8
2023-12-15T03:37:47.722Z,5.4
2023-12-15T03:38:47.511Z,4.4
2023-12-15T03:39:47.338Z,5.2
2023-12-15T03:40:47.234Z,4.4
2023-12-15T03:41:47.835Z,4.7
2023-12-15T03:42:47.637Z,4.1
2023-12-15T03:43:47.484Z,4.8
2023-12-15T03:44:47.241Z,4.1
2023-12-15T03:45:47.264Z,3.9
2023-12-15T03:46:47.761Z,5.4
2023-12-15T03:47:47.619Z,5.1
2023-12-15T03:48:47.450Z,5.3
2023-12-15T03:49:47.256Z,5.8
2023-12-15T03:50:47.923Z,4.8
2023-12-15T03:51:47.702Z,5.6
2023-12-15T03:52:47.582Z,5.1
2023-12-15T03:53:47.326Z,5.3
2023-12-15T03:54:47.095Z,4.1
2023-12-15T03:55:47.779Z,4.6
2023-12-15T03:56:52.464Z,4.5
2023-12-15T03:57:48.144Z,4.0
2023-12-15T03:58:47.191Z,4.1
2023-12-15T03:59:47.011Z,4.0
2023-12-15T04:00:47.953Z,5.3
2023-12-15T04:01:47.529Z,5.0
2023-12-15T04:02:47.971Z,5.3
2023-12-15T04:03:47.562Z,5.8
2023-12-15T04:04:47.424Z,5.8
2023-12-15T04:05:47.306Z,4.5
2023-12-15T04:06:47.867Z,5.0
2023-12-15T04:07:47.630Z,4.7
2023-12-15T04:08:47.445Z,4.7
2023-12-15T04:09:47.325Z,4.6
2023-12-15T04:10:47.100Z,4.9
2023-12-15T04:11:47.857Z,5.3
2023-12-15T04:12:47.625Z,4.8
2023-12-15T04:13:47.415Z,5.0
2023-12-15T04:14:47.225Z,4.7
2023-12-15T04:15:47.024Z,4.4
2023-12-15T04:16:47.750Z,3.8
2023-12-15T04:17:47.787Z,5.0
2023-12-15T04:18:47.484Z,5.1
2023-12-15T04:19:47.846Z,5.4
2023-12-15T04:20:47.428Z,4.9
2023-12-15T04:21:47.162Z,3.9
2023-12-15T04:22:47.902Z,5.9
2023-12-15T04:23:47.787Z,4.6
2023-12-15T04:24:47.562Z,4.8
2023-12-15T04:25:47.501Z,4.2
2023-12-15T04:26:47.207Z,5.3
2023-12-15T04:27:48.449Z,5.5
2023-12-15T04:28:47.623Z,3.4
2023-12-15T04:29:47.534Z,4.4
2023-12-15T04:30:47.451Z,5.1
2023-12-15T04:31:47.129Z,4.0
2023-12-15T04:32:47.774Z,5.0
2023-12-15T04:33:47.612Z,4.9
2023-12-15T04:34:47.387Z,5.5
2023-12-15T04:35:47.277Z,4.5
2023-12-15T04:36:47.087Z,4.0
2023-12-15T04:37:47.232Z,5.4
2023-12-15T04:38:47.285Z,4.4
2023-12-15T04:39:48.194Z,4.2
2023-12-15T04:40:47.127Z,5.3
2023-12-15T04:41:47.875Z,3.8
2023-12-15T04:42:47.554Z,3.5
2023-12-15T04:43:47.460Z,4.8
2023-12-15T04:44:47.187Z,4.3
2023-12-15T04:45:47.942Z,4.6
2023-12-15T04:46:47.796Z,3.9
2023-12-15T04:47:47.760Z,5.0
2023-12-15T04:48:47.448Z,5.0
2023-12-15T04:49:47.278Z,4.9
2023-12-15T04:50:47.886Z,4.7
2023-12-15T04:51:47.584Z,4.5
2023-12-15T04:52:47.411Z,4.6
2023-12-15T04:53:47.920Z,3.6
2023-12-15T04:54:47.118Z,4.3
2023-12-15T04:55:47.758Z,4.2
2023-12-15T04:56:47.576Z,4.4
2023-12-15T04:57:50.006Z,4.2
2023-12-15T04:58:47.936Z,4.5
2023-12-15T04:59:47.569Z,4.4
2023-12-15T05:00:47.302Z,4.0
2023-12-15T05:01:47.059Z,4.1
2023-12-15T05:02:47.714Z,4.8
2023-12-15T05:03:47.618Z,4.4
2023-12-15T05:04:47.653Z,4.5
2023-12-15T05:05:47.698Z,5.3
2023-12-15T05:06:48.145Z,4.6
2023-12-15T05:07:47.186Z,4.1
2023-12-15T05:08:47.310Z,5.1
2023-12-15T05:09:47.917Z,4.6
2023-12-15T05:10:49.781Z,4.1
2023-12-15T05:11:47.395Z,4.8
2023-12-15T05:12:47.146Z,4.2
2023-12-15T05:13:47.862Z,3.5
2023-12-15T05:14:47.731Z,4.3
2023-12-15T05:15:47.521Z,5.4
2023-12-15T05:16:47.300Z,5.4
2023-12-15T05:17:47.291Z,4.7
2023-12-15T05:18:47.798Z,3.7
2023-12-15T05:19:47.488Z,4.3
2023-12-15T05:20:47.414Z,3.6
2023-12-15T05:21:47.265Z,5.3
2023-12-15T05:22:47.857Z,4.2
2023-12-15T05:23:47.692Z,4.7
2023-12-15T05:24:47.461Z,5.2
2023-12-15T05:25:47.283Z,3.5
2023-12-15T05:26:47.104Z,5.2
2023-12-15T05:27:47.727Z,4.8
2023-12-15T05:28:47.684Z,4.8
2023-12-15T05:29:47.615Z,4.2
2023-12-15T05:30:47.654Z,5.1
2023-12-15T05:31:47.476Z,5.3
2023-12-15T05:32:47.386Z,4.6
2023-12-15T05:33:47.115Z,4.5
2023-12-15T05:34:47.728Z,4.6
2023-12-15T05:35:47.657Z,4.1
2023-12-15T05:36:47.345Z,3.5
2023-12-15T05:37:49.108Z,4.6
2023-12-15T05:38:48.219Z,3.8
2023-12-15T05:39:47.655Z,4.9
2023-12-15T05:40:47.678Z,4.1
2023-12-15T05:41:47.249Z,4.0
2023-12-15T05:42:47.093Z,4.2
2023-12-15T05:43:48.150Z,4.4
2023-12-15T05:44:47.656Z,3.3
2023-12-15T05:45:47.557Z,4.7
2023-12-15T05:46:47.301Z,4.4
2023-12-15T05:47:48.289Z,4.7
2023-12-15T05:48:47.889Z,4.4
2023-12-15T05:49:47.712Z,4.1
2023-12-15T05:50:47.412Z,3.9
2023-12-15T05:51:47.843Z,4.4
2023-12-15T05:52:47.894Z,4.0
2023-12-15T05:53:55.210Z,3.7
2023-12-15T05:54:47.863Z,5.1
2023-12-15T05:55:47.697Z,5.2
2023-12-15T05:56:47.595Z,3.6
2023-12-15T05:57:47.380Z,4.1
2023-12-15T05:58:47.341Z,4.8
2023-12-15T05:59:47.917Z,4.3
2023-12-15T06:00:47.565Z,4.1
2023-12-15T06:01:47.417Z,4.3
2023-12-15T06:02:47.211Z,4.4
2023-12-15T06:03:47.946Z,4.8
2023-12-15T06:04:47.661Z,4.5
2023-12-15T06:05:47.527Z,4.6
2023-12-15T06:06:47.355Z,3.8
2023-12-15T06:07:47.084Z,3.8
2023-12-15T06:08:48.292Z,4.1
2023-12-15T06:09:47.534Z,4.0
2023-12-15T06:10:47.326Z,4.2
2023-12-15T06:11:47.141Z,3.7
2023-12-15T06:12:47.889Z,4.6
2023-12-15T06:13:47.711Z,3.7
2023-12-15T06:14:47.604Z,4.9
2023-12-15T06:15:47.283Z,4.0
2023-12-15T06:16:47.779Z,4.1
2023-12-15T06:17:47.854Z,4.1
2023-12-15T06:18:48.253Z,3.6
2023-12-15T06:19:47.450Z,4.6
2023-12-15T06:20:47.204Z,3.9
2023-12-15T06:21:48.075Z,4.6
2023-12-15T06:22:47.761Z,3.6
2023-12-15T06:23:47.527Z,3.8
2023-12-15T06:24:47.371Z,3.9
2023-12-15T06:25:47.142Z,3.6
2023-12-15T06:26:47.826Z,4.2
2023-12-15T06:27:47.609Z,4.0
2023-12-15T06:28:47.781Z,3.6
2023-12-15T06:29:47.209Z,4.5
2023-12-15T06:30:47.988Z,4.2
2023-12-15T06:31:47.905Z,5.0
2023-12-15T06:32:47.678Z,4.6
2023-12-15T06:33:48.204Z,4.2
2023-12-15T06:34:47.644Z,4.1
2023-12-15T06:35:47.460Z,3.5
2023-12-15T06:36:47.245Z,4.1
2023-12-15T06:37:47.830Z,3.9
2023-12-15T06:38:47.779Z,3.6
2023-12-15T06:39:47.517Z,3.3
2023-12-15T06:40:47.261Z,4.4
2023-12-15T06:41:47.133Z,4.0
2023-12-15T06:42:47.806Z,3.7
2023-12-15T06:43:47.690Z,4.6
2023-12-15T06:44:47.472Z,4.4
2023-12-15T06:45:47.240Z,4.1
2023-12-15T06:46:47.891Z,3.5
2023-12-15T06:47:47.869Z,4.0
2023-12-15T06:48:47.678Z,5.0
2023-12-15T06:49:47.497Z,4.5
2023-12-15T06:50:47.274Z,3.9
2023-12-15T06:51:47.829Z,3.8
2023-12-15T06:52:47.619Z,3.7
2023-12-15T06:53:47.478Z,3.9
2023-12-15T06:54:47.268Z,4.3
2023-12-15T06:55:47.062Z,4.0
2023-12-15T06:56:47.699Z,4.3
2023-12-15T06:57:47.628Z,4.3
2023-12-15T06:58:47.337Z,3.9
2023-12-15T06:59:47.255Z,4.3
2023-12-15T07:00:47.995Z,4.0
2023-12-15T07:01:47.758Z,4.3
2023-12-15T07:02:47.480Z,3.9
2023-12-15T07:03:47.440Z,4.8
2023-12-15T07:04:47.706Z,4.6
2023-12-15T07:05:47.470Z,5.3
2023-12-15T07:06:47.367Z,4.6
2023-12-15T07:07:47.797Z,4.2
2023-12-15T07:08:47.718Z,4.9
2023-12-15T07:09:47.544Z,4.8
2023-12-15T07:10:47.244Z,5.1
2023-12-15T07:11:47.961Z,5.1
2023-12-15T07:12:47.829Z,5.1
2023-12-15T07:13:47.576Z,5.9
2023-12-15T07:14:47.436Z,5.5
2023-12-15T07:15:47.189Z,5.7
2023-12-15T07:16:47.958Z,7.2
2023-12-15T07:17:47.926Z,6.0
2023-12-15T07:18:47.709Z,5.4
2023-12-15T07:19:47.440Z,5.6
2023-12-15T07:20:49.485Z,5.0
2023-12-15T07:21:47.333Z,4.7
2023-12-15T07:22:47.256Z,5.4
2023-12-15T07:23:47.892Z,6.3
2023-12-15T07:24:47.259Z,6.0
2023-12-15T07:25:47.929Z,5.3
2023-12-15T07:26:47.717Z,5.3
2023-12-15T07:27:47.491Z,5.6
2023-12-15T07:28:47.452Z,5.2
2023-12-15T07:29:47.190Z,4.7
2023-12-15T07:30:47.804Z,5.4
2023-12-15T07:31:50.261Z,6.6
2023-12-15T07:32:47.687Z,4.7
2023-12-15T07:33:47.891Z,5.4
2023-12-15T07:34:47.863Z,6.0
2023-12-15T07:35:47.686Z,4.8
2023-12-15T07:36:47.668Z,5.2
2023-12-15T07:37:47.353Z,5.4
2023-12-15T07:38:47.198Z,5.3
2023-12-15T07:39:47.469Z,10.1
2023-12-15T07:40:47.471Z,20.7
2023-12-15T07:41:48.225Z,18.5
2023-12-15T07:42:47.653Z,9.6
2023-12-15T07:43:47.925Z,10.0
2023-12-15T07:44:47.775Z,12.6
2023-12-15T07:45:47.873Z,20.5
2023-12-15T07:46:47.333Z,12.5
2023-12-15T07:47:47.326Z,12.0
2023-12-15T07:48:47.844Z,12.2
2023-12-15T07:49:47.594Z,14.1
2023-12-15T07:50:47.848Z,14.4
2023-12-15T07:51:47.880Z,15.0
2023-12-15T07:52:47.501Z,15.5
2023-12-15T07:53:47.492Z,16.8
2023-12-15T07:54:47.958Z,19.1
2023-12-15T07:55:47.678Z,17.1
2023-12-15T07:56:47.663Z,18.0
2023-12-15T07:57:47.712Z,17.8
2023-12-15T07:58:47.192Z,19.1
2023-12-15T07:59:47.998Z,15.8
2023-12-15T08:00:47.503Z,17.7
2023-12-15T08:01:51.378Z,15.8
2023-12-15T08:02:48.049Z,17.1
2023-12-15T08:03:48.097Z,15.7
2023-12-15T08:04:47.264Z,14.9
2023-12-15T08:05:47.842Z,15.5
2023-12-15T08:06:47.430Z,13.8
2023-12-15T08:07:47.103Z,14.5
2023-12-15T08:08:47.757Z,15.1
2023-12-15T08:09:47.613Z,13.7
2023-12-15T08:10:47.406Z,13.1
2023-12-15T08:11:47.339Z,13.5
2023-12-15T08:12:47.899Z,13.8
2023-12-15T08:13:47.326Z,13.9
2023-12-15T08:14:47.120Z,12.6
2023-12-15T08:15:47.964Z,14.2
2023-12-15T08:16:47.791Z,14.7
2023-12-15T08:17:47.369Z,14.0
2023-12-15T08:18:47.371Z,11.4
2023-12-15T08:19:47.882Z,13.1
2023-12-15T08:20:47.342Z,12.7
2023-12-15T08:21:50.658Z,13.8
2023-12-15T08:22:47.756Z,12.1
2023-12-15T08:23:47.513Z,11.9
2023-12-15T08:24:47.333Z,12.1
2023-12-15T08:25:47.714Z,12.4
2023-12-15T08:26:47.505Z,13.4
2023-12-15T08:27:47.580Z,12.2
2023-12-15T08:28:47.428Z,10.8
2023-12-15T08:29:47.319Z,10.8
2023-12-15T08:30:48.755Z,9.6
2023-12-15T08:31:47.696Z,11.5
2023-12-15T08:32:47.703Z,10.8
2023-12-15T08:33:47.527Z,11.6
2023-12-15T08:34:47.706Z,13.1
2023-12-15T08:35:47.714Z,11.7
2023-12-15T08:36:47.275Z,10.6
2023-12-15T08:37:47.855Z,10.3
2023-12-15T08:38:47.867Z,10.0
2023-12-15T08:39:47.434Z,10.4
2023-12-15T08:40:47.279Z,10.5
2023-12-15T08:41:47.205Z,10.4
2023-12-15T08:42:47.847Z,10.8
2023-12-15T08:43:47.260Z,9.5
2023-12-15T08:44:47.425Z,9.6
2023-12-15T08:45:47.175Z,9.9
2023-12-15T08:46:47.952Z,10.0
2023-12-15T08:47:47.790Z,10.4
2023-12-15T08:48:47.729Z,9.6
2023-12-15T08:49:47.347Z,9.5
2023-12-15T08:50:47.220Z,10.4
2023-12-15T08:51:48.016Z,11.0
2023-12-15T08:52:47.252Z,10.9
2023-12-15T08:53:47.483Z,11.1
2023-12-15T08:54:47.171Z,8.8
2023-12-15T08:55:48.289Z,9.8
2023-12-15T08:56:47.958Z,9.7
2023-12-15T08:57:47.744Z,9.6
2023-12-15T08:58:47.342Z,8.9
2023-12-15T08:59:47.276Z,9.5
2023-12-15T09:00:47.445Z,10.6
2023-12-15T09:01:47.167Z,9.5
2023-12-15T09:02:47.849Z,9.1
2023-12-15T09:03:48.002Z,7.8
2023-12-15T09:04:55.775Z,9.5
2023-12-15T09:06:07.727Z,9.6
2023-12-15T09:06:49.747Z,8.9
2023-12-15T09:07:47.440Z,9.2
2023-12-15T09:08:47.780Z,9.9
2023-12-15T09:09:47.432Z,8.6
2023-12-15T09:10:47.194Z,7.7
2023-12-15T09:11:47.962Z,8.0
2023-12-15T09:12:47.736Z,8.1
2023-12-15T09:13:48.096Z,10.2
2023-12-15T09:14:47.734Z,8.9
2023-12-15T09:15:47.555Z,9.0
2023-12-15T09:16:47.348Z,9.8
2023-12-15T09:17:47.185Z,8.9
2023-12-15T09:18:47.958Z,7.6
2023-12-15T09:19:47.596Z,8.7
2023-12-15T09:20:47.935Z,9.1
2023-12-15T09:21:47.681Z,8.4
2023-12-15T09:22:47.505Z,7.8
2023-12-15T09:23:47.256Z,8.2
2023-12-15T09:24:47.086Z,7.1
2023-12-15T09:25:48.107Z,9.1
2023-12-15T09:26:47.949Z,8.0
2023-12-15T09:27:47.884Z,10.5
2023-12-15T09:28:47.644Z,8.9
2023-12-15T09:29:47.545Z,10.8
2023-12-15T09:30:47.218Z,9.8
2023-12-15T09:31:47.483Z,10.3
2023-12-15T09:32:47.332Z,9.2
2023-12-15T09:33:48.616Z,7.3
2023-12-15T09:34:47.748Z,8.5
2023-12-15T09:35:47.415Z,8.7
2023-12-15T09:36:47.762Z,9.3
2023-12-15T09:37:50.493Z,7.5
2023-12-15T09:38:47.768Z,9.2
2023-12-15T09:39:48.488Z,8.4
2023-12-15T09:40:48.064Z,8.8
2023-12-15T09:41:47.720Z,8.7
2023-12-15T09:42:47.495Z,7.5
2023-12-15T09:43:47.253Z,8.7
2023-12-15T09:44:57.354Z,8.5
2023-12-15T09:45:47.683Z,8.2
2023-12-15T09:46:47.584Z,8.1
2023-12-15T09:47:48.247Z,8.2
2023-12-15T09:48:49.126Z,8.4
2023-12-15T09:49:50.836Z,10.2
2023-12-15T09:50:50.622Z,8.7
2023-12-15T09:51:48.470Z,7.5
2023-12-15T09:52:47.275Z,7.9
2023-12-15T09:53:47.068Z,8.3
2023-12-15T09:54:48.407Z,7.8
2023-12-15T09:55:47.216Z,8.4
2023-12-15T09:56:48.100Z,8.3
2023-12-15T09:57:47.744Z,7.9
2023-12-15T09:58:47.344Z,9.6
2023-12-15T09:59:47.604Z,7.9
2023-12-15T10:00:47.637Z,6.5
2023-12-15T10:01:47.294Z,8.8
2023-12-15T10:02:47.992Z,8.1
2023-12-15T10:03:47.822Z,7.1
2023-12-15T10:04:47.596Z,9.2
2023-12-15T10:05:47.509Z,8.0
2023-12-15T10:06:47.609Z,8.0
2023-12-15T10:07:47.416Z,7.5
2023-12-15T10:09:47.832Z,8.3
2023-12-15T10:10:47.719Z,8.3
2023-12-15T10:11:47.617Z,6.8
2023-12-15T10:12:47.315Z,8.1
2023-12-15T10:13:47.091Z,6.7
2023-12-15T10:14:47.490Z,8.5
2023-12-15T10:15:50.124Z,7.0
2023-12-15T10:16:47.945Z,7.8
2023-12-15T10:17:48.978Z,7.4
2023-12-15T10:18:47.636Z,7.4
2023-12-15T10:19:47.430Z,7.6
2023-12-15T10:20:47.424Z,7.6
2023-12-15T10:21:47.785Z,7.3
2023-12-15T10:22:47.605Z,7.7
2023-12-15T10:23:47.796Z,8.0
2023-12-15T10:24:47.629Z,7.8
2023-12-15T10:25:47.435Z,8.3
2023-12-15T10:26:47.524Z,7.2
2023-12-15T10:27:48.470Z,8.0
2023-12-15T10:28:47.242Z,6.9
2023-12-15T10:29:47.504Z,7.9
2023-12-15T10:30:50.397Z,8.5
2023-12-15T10:31:47.792Z,8.7
2023-12-15T10:32:47.678Z,7.7
2023-12-15T10:33:47.222Z,8.5
2023-12-15T10:34:50.231Z,8.0
2023-12-15T10:35:47.705Z,7.5
2023-12-15T10:36:48.118Z,7.3
2023-12-15T10:37:47.850Z,6.8
2023-12-15T10:38:47.892Z,7.5
2023-12-15T10:39:47.506Z,7.6
2023-12-15T10:40:47.299Z,8.8
2023-12-15T10:41:48.415Z,7.4
2023-12-15T10:42:47.893Z,7.8
2023-12-15T10:43:47.339Z,7.7
2023-12-15T10:44:48.310Z,7.3
2023-12-15T10:45:48.114Z,7.5
2023-12-15T10:46:47.363Z,7.2
2023-12-15T10:47:48.150Z,5.0
2023-12-15T10:48:47.731Z,8.5
2023-12-15T10:49:52.948Z,6.1
2023-12-15T10:50:48.217Z,7.6
2023-12-15T10:51:48.857Z,7.8
2023-12-15T10:52:49.739Z,7.1
2023-12-15T10:53:48.136Z,6.9
2023-12-15T10:54:48.049Z,8.1
2023-12-15T10:55:48.501Z,7.6
2023-12-15T10:56:47.604Z,7.2
2023-12-15T10:57:47.497Z,6.6
2023-12-15T10:58:47.292Z,7.3
2023-12-15T10:59:47.448Z,7.4
2023-12-15T11:00:47.853Z,6.8
2023-12-15T11:01:47.650Z,8.2
2023-12-15T11:02:48.113Z,8.5
2023-12-15T11:03:47.205Z,7.0
2023-12-15T11:04:48.031Z,6.3
2023-12-15T11:05:47.890Z,7.4
2023-12-15T11:06:47.583Z,8.0
2023-12-15T11:07:49.087Z,6.8
2023-12-15T11:08:47.357Z,6.8
2023-12-15T11:09:50.062Z,7.0
2023-12-15T11:10:49.362Z,6.8
2023-12-15T11:11:47.487Z,7.8
2023-12-15T11:12:47.719Z,7.2
2023-12-15T11:13:53.813Z,7.8
2023-12-15T11:14:54.289Z,7.7
2023-12-15T11:15:48.352Z,8.2
2023-12-15T11:16:48.081Z,7.8
2023-12-15T11:17:49.369Z,7.5
2023-12-15T11:18:49.088Z,7.9
2023-12-15T11:19:49.150Z,6.4
2023-12-15T11:20:48.085Z,7.4
2023-12-15T11:21:47.737Z,7.8
2023-12-15T11:22:48.340Z,6.9
2023-12-15T11:24:03.527Z,6.5
2023-12-15T11:24:47.211Z,7.6
2023-12-15T11:25:52.702Z,7.5
2023-12-15T11:26:48.918Z,8.4
2023-12-15T11:28:00.653Z,7.7
2023-12-15T11:28:47.835Z,7.4
2023-12-15T11:29:47.453Z,7.5
2023-12-15T11:30:48.416Z,6.0
2023-12-15T11:31:47.179Z,6.5
2023-12-15T11:32:47.994Z,7.9
2023-12-15T11:33:47.721Z,7.0
2023-12-15T11:34:47.488Z,8.2
2023-12-15T11:35:51.650Z,11.6
2023-12-15T11:36:47.940Z,8.6
2023-12-15T11:37:47.922Z,8.0
2023-12-15T11:38:47.224Z,6.8
2023-12-15T11:39:49.080Z,7.1
2023-12-15T11:40:47.332Z,8.0
2023-12-15T11:41:48.587Z,8.5
2023-12-15T11:42:48.549Z,7.7
2023-12-15T11:43:48.812Z,7.8
2023-12-15T11:44:47.257Z,8.5
2023-12-15T11:45:47.695Z,7.6
2023-12-15T11:46:47.795Z,8.6
2023-12-15T11:47:47.756Z,8.5
2023-12-15T11:48:47.463Z,7.7
2023-12-15T11:49:47.197Z,7.4
2023-12-15T11:50:48.089Z,8.7
2023-12-15T11:51:47.310Z,9.2
2023-12-15T11:52:48.650Z,7.4
2023-12-15T11:53:48.590Z,7.0
2023-12-15T11:54:47.974Z,6.8
2023-12-15T11:55:47.934Z,7.4
2023-12-15T11:56:47.368Z,8.6
2023-12-15T11:57:47.835Z,8.0
2023-12-15T11:58:47.696Z,9.2
2023-12-15T11:59:47.512Z,9.3
2023-12-15T12:00:48.126Z,8.6
2023-12-15T12:01:47.578Z,7.7
2023-12-15T12:02:48.150Z,8.4
2023-12-15T12:03:47.108Z,8.2
2023-12-15T12:04:47.777Z,8.4
2023-12-15T12:05:48.065Z,8.6
2023-12-15T12:06:48.077Z,8.1
2023-12-15T12:07:47.709Z,8.0
2023-12-15T12:08:47.545Z,8.8
2023-12-15T12:09:47.426Z,8.5
2023-12-15T12:10:47.181Z,7.9
2023-12-15T12:11:47.989Z,8.4
2023-12-15T12:12:47.655Z,7.9
2023-12-15T12:13:47.478Z,8.1
2023-12-15T12:14:47.652Z,7.7
2023-12-15T12:15:47.993Z,8.5
2023-12-15T12:16:51.636Z,9.0
2023-12-15T12:17:47.291Z,8.5
2023-12-15T12:18:48.502Z,7.3
2023-12-15T12:19:47.768Z,7.9
2023-12-15T12:20:47.672Z,8.5
2023-12-15T12:21:47.263Z,6.8
2023-12-15T12:22:47.860Z,6.7
2023-12-15T12:23:50.321Z,9.2
2023-12-15T12:24:47.883Z,8.0
2023-12-15T12:25:47.710Z,9.1
2023-12-15T12:26:50.270Z,7.1
2023-12-15T12:27:47.307Z,7.7
2023-12-15T12:28:47.236Z,9.0
2023-12-15T12:29:47.853Z,7.5
2023-12-15T12:30:47.684Z,6.6
2023-12-15T12:31:47.563Z,7.6
2023-12-15T12:32:47.827Z,8.0
2023-12-15T12:33:47.702Z,7.0
2023-12-15T12:34:48.901Z,7.8
2023-12-15T12:35:47.174Z,7.4
2023-12-15T12:36:47.819Z,7.4
2023-12-15T12:37:47.650Z,7.5
2023-12-15T12:38:48.582Z,8.0
2023-12-15T12:39:47.224Z,7.9
2023-12-15T12:40:49.578Z,7.4
2023-12-15T12:41:47.403Z,9.3
2023-12-15T12:43:06.951Z,7.2
2023-12-15T12:43:51.201Z,7.5
2023-12-15T12:44:47.784Z,8.1
2023-12-15T12:46:47.304Z,7.9
2023-12-15T12:47:47.485Z,7.5
2023-12-15T12:48:48.490Z,7.6
2023-12-15T12:49:52.603Z,8.1
2023-12-15T12:50:47.803Z,8.4
2023-12-15T12:51:47.604Z,7.0
2023-12-15T12:52:47.545Z,6.9
2023-12-15T12:53:47.656Z,8.2
2023-12-15T12:54:47.874Z,8.0
2023-12-15T12:55:47.608Z,7.5
2023-12-15T12:56:54.743Z,7.1
2023-12-15T12:57:47.427Z,7.9
2023-12-15T12:58:47.184Z,7.7
2023-12-15T12:59:47.976Z,6.8
2023-12-15T13:00:47.811Z,7.0
2023-12-15T13:01:47.506Z,7.9
2023-12-15T13:02:47.435Z,8.6
2023-12-15T13:03:47.819Z,7.5
2023-12-15T13:04:47.876Z,7.6
2023-12-15T13:05:47.194Z,6.6
2023-12-15T13:06:47.909Z,7.8
2023-12-15T13:07:47.647Z,7.0
2023-12-15T13:08:47.511Z,7.7
2023-12-15T13:09:47.251Z,7.8
2023-12-15T13:10:48.028Z,6.8
2023-12-15T13:11:48.162Z,7.4
2023-12-15T13:12:47.597Z,8.5
2023-12-15T13:13:47.790Z,7.6
2023-12-15T13:14:47.238Z,8.2
2023-12-15T13:15:47.934Z,8.4
2023-12-15T13:16:47.671Z,7.6
2023-12-15T13:17:47.553Z,6.4
2023-12-15T13:18:47.308Z,8.0
2023-12-15T13:19:48.038Z,7.0
2023-12-15T13:20:47.880Z,7.1
2023-12-15T13:21:47.173Z,7.8
2023-12-15T13:22:49.036Z,6.5
2023-12-15T13:23:47.194Z,11.3
2023-12-15T13:24:54.916Z,8.0
2023-12-15T13:25:47.617Z,8.3
2023-12-15T13:26:47.435Z,8.0
2023-12-15T13:27:47.531Z,8.6
2023-12-15T13:28:47.466Z,7.4
2023-12-15T13:29:47.450Z,7.0
2023-12-15T13:30:47.076Z,6.5
2023-12-15T13:31:47.794Z,8.1
2023-12-15T13:32:47.725Z,7.3
2023-12-15T13:33:47.694Z,8.1
2023-12-15T13:34:47.351Z,7.7
2023-12-15T13:35:47.946Z,7.3
2023-12-15T13:36:47.317Z,7.3
2023-12-15T13:37:47.087Z,8.6
2023-12-15T13:38:48.041Z,8.0
2023-12-15T13:39:47.161Z,6.6
2023-12-15T13:40:47.758Z,8.8
2023-12-15T13:41:47.652Z,6.1
2023-12-15T13:42:47.396Z,7.5
2023-12-15T13:43:47.205Z,6.8
2023-12-15T13:44:47.966Z,6.5
2023-12-15T13:45:53.860Z,7.3